Time,TemperatureF,DewpointF,PressureIn,WindDirection,WindDirectionDegrees,WindSpeedMPH,WindSpeedGustMPH,Humidity,HourlyPrecipIn,Conditions,Clouds,dailyrainin,SoftwareType,DateUTC
2013-01-08 00:00:00,31.0,24.4,30.34,West,270,1.3,3.7,76,0.00,,---,0.00,VWS V14.01,2013-01-08 05:00:00,
2013-01-08 00:01:00,30.9,24.3,30.34,West,263,1.8,3.7,76,0.00,,---,0.00,VWS V14.01,2013-01-08 05:01:00,
2013-01-08 00:06:00,31.1,24.3,30.35,WSW,242,0.8,2.3,76,0.56,,---,0.00,VWS V14.01,2013-01-08 05:06:00,
2013-01-08 00:10:00,30.3,23.6,30.34,WSW,257,1.9,2.4,76,0.00,,---,0.00,VWS V14.01,2013-01-08 05:10:00,
2013-01-08 00:15:00,30.9,24.1,30.34,SW,218,0.0,0.0,76,0.00,,---,0.00,VWS V14.01,2013-01-08 05:15:00,
2013-01-08 00:20:00,30.7,24.3,30.35,WSW,253,2.1,2.1,77,33.68,,---,0.00,VWS V14.01,2013-01-08 05:20:00,
2013-01-08 00:25:00,30.3,24.0,30.34,WNW,292,0.7,1.9,77,0.00,,---,0.00,VWS V14.01,2013-01-08 05:25:00,
2013-01-08 00:29:00,35.6,30.5,30.32,East,82,0.4,0.6,81,0.00,,---,0.00,VWS V14.01,2013-01-08 05:29:00,
2013-01-08 00:30:00,30.8,24.5,30.34,WSW,252,1.7,2.8,77,0.00,,---,0.00,VWS V14.01,2013-01-08 05:30:00,
2013-01-08 00:35:00,29.7,23.5,30.34,West,267,1.8,2.2,77,0.00,,---,0.00,VWS V14.01,2013-01-08 05:35:00,
2013-01-08 00:40:00,30.9,24.6,30.35,West,278,1.7,2.2,77,0.00,,---,0.00,VWS V14.01,2013-01-08 05:40:00,
2013-01-08 00:45:00,30.5,24.5,30.35,WSW,257,2.3,3.6,78,0.00,,---,0.00,VWS V14.01,2013-01-08 05:45:00,
2013-01-08 00:50:00,30.3,24.5,30.35,WNW,291,1.4,2.5,79,0.00,,---,0.00,VWS V14.01,2013-01-08 05:50:00,
2013-01-08 00:55:00,30.4,24.4,30.35,SE,141,0.0,0.7,78,0.00,,---,0.00,VWS V14.01,2013-01-08 05:55:00,
2013-01-08 01:00:00,30.1,24.3,30.35,WSW,255,1.8,2.5,79,0.00,,---,0.00,VWS V14.01,2013-01-08 06:00:00,
2013-01-08 01:05:00,30.2,24.4,30.34,WNW,292,0.9,1.9,79,0.00,,---,0.00,VWS V14.01,2013-01-08 06:05:00,
2013-01-08 01:10:00,30.2,24.4,30.35,West,266,0.0,0.0,79,0.00,,---,0.00,VWS V14.01,2013-01-08 06:10:00,
2013-01-08 01:15:00,30.4,24.7,30.35,WNW,295,2.4,3.0,79,0.00,,---,0.00,VWS V14.01,2013-01-08 06:15:00,
2013-01-08 01:20:00,30.1,24.7,30.34,WNW,283,3.2,3.5,80,0.00,,---,0.00,VWS V14.01,2013-01-08 06:20:00,
2013-01-08 01:25:00,30.3,24.9,30.34,West,270,1.3,3.5,80,0.00,,---,0.00,VWS V14.01,2013-01-08 06:25:00,
2013-01-08 01:30:00,29.8,24.3,30.34,West,259,0.3,2.0,80,0.00,,---,0.00,VWS V14.01,2013-01-08 06:30:00,
2013-01-08 01:35:00,30.2,24.7,30.34,WNW,284,2.8,2.8,80,0.00,,---,0.00,VWS V14.01,2013-01-08 06:35:00,
2013-01-08 01:40:00,30.0,24.7,30.34,WNW,288,2.8,2.8,80,0.00,,---,0.00,VWS V14.01,2013-01-08 06:40:00,
2013-01-08 01:45:00,30.0,24.8,30.34,WNW,287,2.7,3.5,81,0.56,,---,0.00,VWS V14.01,2013-01-08 06:45:00,
2013-01-08 01:50:00,29.9,24.7,30.34,West,276,2.1,2.4,81,0.00,,---,0.00,VWS V14.01,2013-01-08 06:50:00,
2013-01-08 01:55:00,30.0,24.8,30.34,WNW,285,0.6,2.5,81,0.00,,---,0.00,VWS V14.01,2013-01-08 06:55:00,
2013-01-08 02:00:00,30.2,25.0,30.34,West,264,0.0,0.0,81,0.00,,---,0.00,VWS V14.01,2013-01-08 07:00:00,
2013-01-08 02:05:00,30.1,24.9,30.34,WNW,288,1.2,1.5,81,0.00,,---,0.00,VWS V14.01,2013-01-08 07:05:00,
2013-01-08 02:10:00,29.8,24.6,30.34,West,278,1.9,1.9,81,0.00,,---,0.00,VWS V14.01,2013-01-08 07:10:00,
2013-01-08 02:15:00,29.7,24.6,30.34,WSW,242,0.0,1.7,81,0.00,,---,0.00,VWS V14.01,2013-01-08 07:15:00,
2013-01-08 02:20:00,29.8,24.7,30.34,West,276,1.6,1.6,81,0.00,,---,0.00,VWS V14.01,2013-01-08 07:20:00,
2013-01-08 02:25:00,29.4,24.5,30.34,West,274,1.9,3.0,82,0.00,,---,0.00,VWS V14.01,2013-01-08 07:25:00,
2013-01-08 02:30:00,29.5,24.6,30.33,West,273,1.7,2.9,82,0.00,,---,0.00,VWS V14.01,2013-01-08 07:30:00,
2013-01-08 02:35:00,29.6,24.6,30.34,WSW,243,0.0,1.6,81,0.00,,---,0.00,VWS V14.01,2013-01-08 07:35:00,
2013-01-08 02:40:00,29.1,24.1,30.34,West,259,0.0,0.0,81,0.00,,---,0.00,VWS V14.01,2013-01-08 07:40:00,
2013-01-08 02:45:00,28.8,23.9,30.33,West,259,0.0,0.0,82,0.00,,---,0.00,VWS V14.01,2013-01-08 07:45:00,
2013-01-08 02:50:00,29.0,24.2,30.33,West,259,0.0,0.0,82,0.00,,---,0.00,VWS V14.01,2013-01-08 07:50:00,
2013-01-08 02:58:00,28.8,24.1,30.33,West,259,0.0,0.0,82,0.00,,---,0.00,VWS V14.01,2013-01-08 07:58:00,
2013-01-08 03:03:00,28.1,23.4,30.33,West,259,0.0,0.0,82,0.00,,---,0.00,VWS V14.01,2013-01-08 08:03:00,
2013-01-08 03:08:00,28.3,23.7,30.33,West,273,0.8,0.8,83,0.00,,---,0.00,VWS V14.01,2013-01-08 08:08:00,
2013-01-08 03:13:00,28.3,23.8,30.33,WSW,245,0.0,0.0,83,0.00,,---,0.00,VWS V14.01,2013-01-08 08:13:00,
2013-01-08 03:18:00,27.7,23.7,30.33,West,267,1.6,2.7,85,0.00,,---,0.00,VWS V14.01,2013-01-08 08:18:00,
2013-01-08 03:23:00,28.3,24.2,30.33,West,269,1.2,2.0,84,0.00,,---,0.00,VWS V14.01,2013-01-08 08:23:00,
2013-01-08 03:28:00,28.8,24.6,30.33,West,264,1.1,1.9,84,0.00,,---,0.00,VWS V14.01,2013-01-08 08:28:00,
2013-01-08 03:33:00,28.5,24.3,30.33,West,281,0.0,0.0,84,0.00,,---,0.00,VWS V14.01,2013-01-08 08:33:00,
2013-01-08 03:38:00,29.0,24.8,30.32,West,277,0.9,1.3,84,0.00,,---,0.00,VWS V14.01,2013-01-08 08:38:00,
2013-01-08 03:43:00,29.2,25.0,30.33,WNW,295,1.9,2.9,84,0.00,,---,0.00,VWS V14.01,2013-01-08 08:43:00,
2013-01-08 03:47:00,36.7,30.9,30.33,SW,214,0.0,0.0,79,0.00,,---,0.00,VWS V14.01,2013-01-08 08:47:00,
2013-01-08 03:48:00,29.4,25.1,30.32,WNW,283,1.7,1.7,84,0.00,,---,0.00,VWS V14.01,2013-01-08 08:48:00,
2013-01-08 03:53:00,29.0,24.7,30.32,SE,141,1.0,1.0,84,0.00,,---,0.00,VWS V14.01,2013-01-08 08:53:00,
2013-01-08 03:58:00,29.0,24.8,30.31,WSW,256,0.6,0.6,84,0.00,,---,0.00,VWS V14.01,2013-01-08 08:58:00,
2013-01-08 04:03:00,28.7,24.6,30.31,WNW,291,1.8,1.8,84,0.00,,---,0.00,VWS V14.01,2013-01-08 09:03:00,
2013-01-08 04:08:00,28.8,24.6,30.31,West,264,0.0,0.0,84,0.00,,---,0.00,VWS V14.01,2013-01-08 09:08:00,
2013-01-08 04:13:00,28.6,24.3,30.31,West,264,0.0,0.0,84,38.26,,---,0.00,VWS V14.01,2013-01-08 09:13:00,
2013-01-08 04:18:00,28.1,24.1,30.32,West,269,2.1,2.7,85,0.00,,---,0.00,VWS V14.01,2013-01-08 09:18:00,
2013-01-08 04:23:00,27.9,24.1,30.31,West,271,2.4,3.6,85,0.00,,---,0.00,VWS V14.01,2013-01-08 09:23:00,
2013-01-08 04:28:00,27.9,24.0,30.31,West,269,1.7,3.7,85,0.56,,---,0.00,VWS V14.01,2013-01-08 09:28:00,
2013-01-08 04:33:00,28.1,24.3,30.32,West,273,3.4,3.7,86,0.00,,---,0.00,VWS V14.01,2013-01-08 09:33:00,
2013-01-08 04:38:00,28.5,24.6,30.32,West,264,3.3,3.7,85,0.00,,---,0.00,VWS V14.01,2013-01-08 09:38:00,
2013-01-08 04:43:00,28.8,25.1,30.31,West,263,3.0,4.7,86,0.00,,---,0.00,VWS V14.01,2013-01-08 09:43:00,
2013-01-08 04:48:00,29.1,25.2,30.32,WSW,249,4.3,6.5,85,0.00,,---,0.00,VWS V14.01,2013-01-08 09:48:00,
2013-01-08 04:53:00,29.5,25.4,30.32,SW,225,3.1,7.2,84,0.00,,---,0.00,VWS V14.01,2013-01-08 09:53:00,
2013-01-08 04:58:00,29.9,25.5,30.32,WSW,246,3.9,7.2,84,0.00,,---,0.00,VWS V14.01,2013-01-08 09:58:00,
2013-01-08 05:03:00,29.9,25.4,30.32,West,259,2.8,7.2,83,0.00,,---,0.00,VWS V14.01,2013-01-08 10:03:00,
2013-01-08 05:08:00,30.0,25.2,30.32,SW,221,2.3,7.2,82,0.00,,---,0.00,VWS V14.01,2013-01-08 10:08:00,
2013-01-08 05:12:00,30.1,25.2,30.32,WSW,240,4.9,7.2,82,0.00,,---,0.00,VWS V14.01,2013-01-08 10:12:00,
2013-01-08 05:17:00,29.6,24.6,30.33,WSW,257,2.8,7.2,82,0.00,,---,0.00,VWS V14.01,2013-01-08 10:17:00,
2013-01-08 05:22:00,30.6,25.5,30.33,WSW,239,2.5,7.2,81,0.00,,---,0.00,VWS V14.01,2013-01-08 10:22:00,
2013-01-08 05:27:00,30.8,25.7,30.33,SW,225,0.9,7.2,81,0.00,,---,0.00,VWS V14.01,2013-01-08 10:27:00,
2013-01-08 05:32:00,30.4,25.2,30.33,NW,304,1.6,7.2,81,0.00,,---,0.00,VWS V14.01,2013-01-08 10:32:00,
2013-01-08 05:37:00,30.7,25.4,30.33,WSW,243,5.7,8.4,80,0.00,,---,0.00,VWS V14.01,2013-01-08 10:37:00,
2013-01-08 05:42:00,30.6,25.3,30.33,ESE,122,3.4,8.4,80,0.00,,---,0.00,VWS V14.01,2013-01-08 10:42:00,
2013-01-08 05:47:00,31.0,25.6,30.33,WSW,240,2.9,8.4,80,0.00,,---,0.00,VWS V14.01,2013-01-08 10:47:00,
2013-01-08 05:52:00,30.4,24.9,30.34,West,267,2.2,8.4,80,0.00,,---,0.00,VWS V14.01,2013-01-08 10:52:00,
2013-01-08 05:57:00,30.7,25.1,30.34,WNW,300,6.3,8.4,80,0.00,,---,0.00,VWS V14.01,2013-01-08 10:57:00,
2013-01-08 06:02:00,29.9,24.5,30.34,NW,311,1.2,8.4,80,0.00,,---,0.00,VWS V14.01,2013-01-08 11:02:00,
2013-01-08 06:07:00,30.3,24.9,30.34,SW,225,3.0,8.4,80,0.00,,---,0.00,VWS V14.01,2013-01-08 11:07:00,
2013-01-08 06:12:00,29.5,24.3,30.34,WSW,240,1.4,8.4,81,0.00,,---,0.00,VWS V14.01,2013-01-08 11:12:00,
2013-01-08 06:17:00,29.6,24.4,30.35,WNW,290,2.2,8.4,81,0.00,,---,0.00,VWS V14.01,2013-01-08 11:17:00,
2013-01-08 06:22:00,29.9,24.9,30.35,WSW,253,3.3,8.4,81,0.00,,---,0.00,VWS V14.01,2013-01-08 11:22:00,
2013-01-08 06:27:00,29.5,24.5,30.35,West,264,3.7,8.4,82,0.00,,---,0.00,VWS V14.01,2013-01-08 11:27:00,
2013-01-08 06:32:00,29.5,24.6,30.35,WNW,288,2.1,8.4,82,0.00,,---,0.00,VWS V14.01,2013-01-08 11:32:00,
2013-01-08 06:37:00,29.3,24.6,30.35,SW,233,2.1,8.4,82,0.00,,---,0.00,VWS V14.01,2013-01-08 11:37:00,
2013-01-08 06:42:00,29.3,24.5,30.35,SW,233,1.2,8.4,82,0.00,,---,0.00,VWS V14.01,2013-01-08 11:42:00,
2013-01-08 06:47:00,29.4,24.6,30.35,SW,226,1.1,8.4,82,0.00,,---,0.00,VWS V14.01,2013-01-08 11:47:00,
2013-01-08 06:52:00,29.0,24.3,30.36,SW,217,3.6,8.4,82,0.00,,---,0.00,VWS V14.01,2013-01-08 11:52:00,
2013-01-08 06:57:00,29.4,24.8,30.36,WSW,242,3.7,8.4,83,0.00,,---,0.00,VWS V14.01,2013-01-08 11:57:00,
2013-01-08 07:02:00,29.3,24.8,30.35,WNW,291,4.0,8.4,83,0.00,,---,0.00,VWS V14.01,2013-01-08 12:02:00,
2013-01-08 07:07:00,29.8,25.3,30.35,SW,231,4.8,8.4,83,0.00,,---,0.00,VWS V14.01,2013-01-08 12:07:00,
2013-01-08 07:12:00,29.4,24.9,30.35,SW,225,3.4,8.4,83,0.00,,---,0.00,VWS V14.01,2013-01-08 12:12:00,
2013-01-08 07:17:00,29.4,25.0,30.35,West,278,2.6,8.4,83,0.00,,---,0.00,VWS V14.01,2013-01-08 12:17:00,
2013-01-08 07:22:00,29.7,25.5,30.35,West,267,3.3,8.4,84,0.00,,---,0.00,VWS V14.01,2013-01-08 12:22:00,
2013-01-08 07:27:00,29.8,25.6,30.35,NNW,333,2.2,8.4,84,0.00,,---,0.00,VWS V14.01,2013-01-08 12:27:00,
2013-01-08 07:32:00,30.2,26.0,30.35,WSW,238,4.7,8.4,84,0.00,,---,0.00,VWS V14.01,2013-01-08 12:32:00,
2013-01-08 07:37:00,30.7,26.5,30.36,WSW,255,2.0,8.4,84,0.00,,---,0.00,VWS V14.01,2013-01-08 12:37:00,
2013-01-08 07:42:00,30.9,26.8,30.36,WSW,243,3.2,8.4,84,0.00,,---,0.00,VWS V14.01,2013-01-08 12:42:00,
2013-01-08 07:47:00,30.5,26.3,30.36,WSW,246,3.8,8.4,84,0.00,,---,0.00,VWS V14.01,2013-01-08 12:47:00,
2013-01-08 07:52:00,31.0,26.8,30.36,West,270,2.7,8.4,84,0.00,,---,0.00,VWS V14.01,2013-01-08 12:52:00,
2013-01-08 07:57:00,30.6,26.5,30.36,WSW,253,3.2,8.4,84,0.00,,---,0.00,VWS V14.01,2013-01-08 12:57:00,
2013-01-08 08:02:00,30.7,26.6,30.36,SW,225,1.7,8.4,85,0.00,,---,0.00,VWS V14.01,2013-01-08 13:02:00,
2013-01-08 08:07:00,30.5,26.6,30.37,WSW,245,5.5,8.4,85,0.00,,---,0.00,VWS V14.01,2013-01-08 13:07:00,
2013-01-08 08:12:00,30.8,27.0,30.37,WSW,250,3.7,8.9,85,0.00,,---,0.00,VWS V14.01,2013-01-08 13:12:00,
2013-01-08 08:17:00,30.9,27.2,30.37,SW,228,1.4,8.9,86,0.00,,---,0.00,VWS V14.01,2013-01-08 13:17:00,
2013-01-08 08:22:00,30.9,27.2,30.38,West,273,3.0,8.9,86,0.00,,---,0.00,VWS V14.01,2013-01-08 13:22:00,
2013-01-08 08:27:00,31.5,27.8,30.38,WSW,253,2.5,8.9,86,0.00,,---,0.00,VWS V14.01,2013-01-08 13:27:00,
2013-01-08 08:32:00,31.0,27.3,30.38,SE,139,2.2,3.1,86,0.00,,---,0.00,VWS V14.01,2013-01-08 13:32:00,
2013-01-08 08:37:00,31.4,27.7,30.38,SW,236,4.1,5.5,86,0.00,,---,0.00,VWS V14.01,2013-01-08 13:37:00,
2013-01-08 08:42:00,31.7,28.0,30.38,SE,124,4.3,5.5,86,0.00,,---,0.00,VWS V14.01,2013-01-08 13:42:00,
2013-01-08 08:47:00,32.2,28.6,30.38,SW,233,7.4,7.5,86,0.00,,---,0.00,VWS V14.01,2013-01-08 13:47:00,
2013-01-08 08:52:00,32.2,28.6,30.38,WSW,257,5.0,5.0,86,0.00,,---,0.00,VWS V14.01,2013-01-08 13:52:00,
2013-01-08 08:57:00,32.5,28.8,30.38,SE,146,2.1,2.9,86,0.00,,---,0.00,VWS V14.01,2013-01-08 13:57:00,
2013-01-08 09:02:00,33.2,29.4,30.38,SW,231,4.8,4.8,86,0.00,,---,0.00,VWS V14.01,2013-01-08 14:02:00,
2013-01-08 09:07:00,33.6,29.5,30.37,SW,214,4.4,6.5,85,0.00,,---,0.00,VWS V14.01,2013-01-08 14:07:00,
2013-01-08 09:12:00,34.0,29.7,30.37,SW,214,3.9,6.2,84,0.00,,---,0.00,VWS V14.01,2013-01-08 14:12:00,
2013-01-08 09:17:00,34.3,29.6,30.37,SSW,195,1.6,5.0,83,0.00,,---,0.00,VWS V14.01,2013-01-08 14:17:00,
2013-01-08 09:22:00,35.1,30.0,30.37,SSW,204,3.0,3.6,82,0.00,,---,0.00,VWS V14.01,2013-01-08 14:22:00,
2013-01-08 09:27:00,35.4,29.8,30.37,WSW,242,5.2,6.9,80,0.00,,---,0.00,VWS V14.01,2013-01-08 14:27:00,
2013-01-08 09:32:00,36.3,30.7,30.37,SW,232,1.6,3.3,80,33.68,,---,0.00,VWS V14.01,2013-01-08 14:32:00,
2013-01-08 09:37:00,36.6,30.2,30.37,SW,233,7.7,10.4,77,0.00,,---,0.00,VWS V14.01,2013-01-08 14:37:00,
2013-01-08 09:42:00,36.9,30.1,30.37,WSW,245,7.6,10.6,76,0.00,,---,0.00,VWS V14.01,2013-01-08 14:42:00,
2013-01-08 09:47:00,37.9,30.7,30.37,WNW,291,6.8,6.8,75,0.00,,---,0.00,VWS V14.01,2013-01-08 14:47:00,
2013-01-08 09:52:00,38.0,30.5,30.37,SW,232,5.0,5.7,74,0.00,,---,0.00,VWS V14.01,2013-01-08 14:52:00,
2013-01-08 09:57:00,38.2,30.0,30.37,SW,232,6.3,7.2,72,0.00,,---,0.00,VWS V14.01,2013-01-08 14:57:00,
2013-01-08 10:02:00,38.4,29.9,30.37,South,181,2.9,3.5,71,0.00,,---,0.00,VWS V14.01,2013-01-08 15:02:00,
2013-01-08 10:07:00,39.0,29.9,30.37,West,267,7.8,10.5,70,0.00,,---,0.00,VWS V14.01,2013-01-08 15:07:00,
2013-01-08 10:12:00,39.4,30.3,30.36,West,267,6.5,6.5,70,0.00,,---,0.00,VWS V14.01,2013-01-08 15:12:00,
2013-01-08 10:17:00,39.8,29.9,30.36,WNW,294,3.3,6.1,67,0.00,,---,0.00,VWS V14.01,2013-01-08 15:17:00,
2013-01-08 10:22:00,40.5,30.5,30.36,SW,224,2.3,3.4,67,0.00,,---,0.00,VWS V14.01,2013-01-08 15:22:00,
2013-01-08 10:27:00,40.9,30.4,30.36,SSW,208,9.2,10.6,66,0.00,,---,0.00,VWS V14.01,2013-01-08 15:27:00,
2013-01-08 10:32:00,41.0,30.3,30.36,West,262,5.5,7.3,65,0.00,,---,0.00,VWS V14.01,2013-01-08 15:32:00,
2013-01-08 10:37:00,42.0,30.6,30.35,West,259,9.4,9.4,64,0.00,,---,0.00,VWS V14.01,2013-01-08 15:37:00,
2013-01-08 10:42:00,41.6,29.9,30.35,WSW,238,8.6,9.3,63,0.00,,---,0.00,VWS V14.01,2013-01-08 15:42:00,
2013-01-08 10:47:00,41.6,29.6,30.35,SW,214,4.7,6.2,62,0.00,,---,0.00,VWS V14.01,2013-01-08 15:47:00,
2013-01-08 10:52:00,42.6,30.2,30.34,NW,305,3.4,9.6,61,0.00,,---,0.00,VWS V14.01,2013-01-08 15:52:00,
2013-01-08 10:57:00,43.5,30.4,30.34,WSW,245,10.2,12.5,60,0.00,,---,0.00,VWS V14.01,2013-01-08 15:57:00,
2013-01-08 11:02:00,44.0,31.0,30.33,SSW,201,3.0,6.6,60,0.00,,---,0.00,VWS V14.01,2013-01-08 16:02:00,
2013-01-08 11:07:00,43.7,29.9,30.33,NW,308,4.5,4.5,58,0.00,,---,0.00,VWS V14.01,2013-01-08 16:07:00,
2013-01-08 11:12:00,44.3,30.4,30.33,NNE,31,3.4,7.3,58,33.36,,---,0.00,VWS V14.01,2013-01-08 16:12:00,
2013-01-08 11:17:00,44.2,30.0,30.32,SW,232,5.2,11.7,57,0.00,,---,0.00,VWS V14.01,2013-01-08 16:17:00,
2013-01-08 11:22:00,44.6,30.2,30.32,SE,132,3.7,9.3,57,0.00,,---,0.00,VWS V14.01,2013-01-08 16:22:00,
2013-01-08 11:27:00,45.4,31.0,30.31,North,359,0.6,5.8,57,0.00,,---,0.00,VWS V14.01,2013-01-08 16:27:00,
2013-01-08 11:31:00,45.3,30.3,30.31,West,259,4.5,7.1,55,0.00,,---,0.00,VWS V14.01,2013-01-08 16:31:00,
2013-01-08 11:36:00,45.4,29.9,30.30,SW,224,6.2,10.9,54,0.00,,---,0.00,VWS V14.01,2013-01-08 16:36:00,
2013-01-08 11:41:00,46.5,31.3,30.30,SW,233,2.5,4.0,55,0.00,,---,0.00,VWS V14.01,2013-01-08 16:41:00,
2013-01-08 11:46:00,46.6,30.5,30.30,SW,224,5.9,10.9,53,0.00,,---,0.00,VWS V14.01,2013-01-08 16:46:00,
2013-01-08 11:51:00,46.0,30.1,30.30,NW,304,4.4,12.0,54,0.00,,---,0.00,VWS V14.01,2013-01-08 16:51:00,
2013-01-08 11:56:00,46.3,30.3,30.29,North,359,4.1,8.3,53,0.00,,---,0.00,VWS V14.01,2013-01-08 16:56:00,
2013-01-08 12:01:00,46.3,29.8,30.29,North,359,10.1,17.9,52,0.00,,---,0.00,VWS V14.01,2013-01-08 17:01:00,
2013-01-08 12:06:00,46.4,30.5,30.29,SW,228,2.7,7.3,54,0.00,,---,0.00,VWS V14.01,2013-01-08 17:06:00,
2013-01-08 12:11:00,46.8,30.7,30.30,WNW,292,4.4,8.6,53,33.23,,---,0.00,VWS V14.01,2013-01-08 17:11:00,
2013-01-08 12:16:00,46.3,30.6,30.30,WSW,249,6.4,6.6,54,0.00,,---,0.00,VWS V14.01,2013-01-08 17:16:00,
2013-01-08 12:21:00,46.5,30.6,30.30,NW,316,4.4,9.3,54,0.00,,---,0.00,VWS V14.01,2013-01-08 17:21:00,
2013-01-08 12:26:00,46.1,30.2,30.30,WSW,252,10.9,13.4,54,0.00,,---,0.00,VWS V14.01,2013-01-08 17:26:00,
2013-01-08 12:31:00,46.2,30.4,30.30,North,359,6.4,14.1,54,0.00,,---,0.00,VWS V14.01,2013-01-08 17:31:00,
2013-01-08 12:36:00,47.0,31.2,30.30,WSW,240,12.1,12.4,54,0.00,,---,0.00,VWS V14.01,2013-01-08 17:36:00,
2013-01-08 12:41:00,45.6,30.0,30.30,WNW,285,7.6,7.6,54,0.00,,---,0.00,VWS V14.01,2013-01-08 17:41:00,
2013-01-08 12:46:00,45.5,30.0,30.29,WSW,252,8.5,14.2,54,33.20,,---,0.00,VWS V14.01,2013-01-08 17:46:00,
2013-01-08 12:51:00,46.5,31.0,30.29,SW,219,13.8,16.7,54,0.00,,---,0.00,VWS V14.01,2013-01-08 17:51:00,
2013-01-08 12:56:00,46.5,30.9,30.28,WSW,242,9.1,14.0,54,0.00,,---,0.00,VWS V14.01,2013-01-08 17:56:00,
2013-01-08 13:01:00,46.6,30.9,30.28,WSW,255,8.0,10.4,54,0.00,,---,0.00,VWS V14.01,2013-01-08 18:01:00,
2013-01-08 13:06:00,46.7,31.1,30.28,WNW,301,13.0,15.7,54,0.00,,---,0.00,VWS V14.01,2013-01-08 18:06:00,
2013-01-08 13:11:00,46.3,30.9,30.28,West,266,8.9,9.8,55,0.00,,---,0.00,VWS V14.01,2013-01-08 18:11:00,
2013-01-08 13:16:00,46.8,31.5,30.28,NE,41,3.9,4.3,55,0.00,,---,0.00,VWS V14.01,2013-01-08 18:16:00,
2013-01-08 13:21:00,46.4,30.9,30.28,North,359,0.8,5.8,54,0.00,,---,0.00,VWS V14.01,2013-01-08 18:21:00,
2013-01-08 13:26:00,47.6,31.5,30.28,North,359,6.0,10.6,53,0.00,,---,0.00,VWS V14.01,2013-01-08 18:26:00,
2013-01-08 13:31:00,47.5,31.3,30.28,NW,311,6.3,16.1,53,0.00,,---,0.00,VWS V14.01,2013-01-08 18:31:00,
2013-01-08 13:36:00,47.4,31.2,30.28,North,359,6.8,8.0,53,0.00,,---,0.00,VWS V14.01,2013-01-08 18:36:00,
2013-01-08 13:41:00,47.1,30.8,30.28,West,267,13.0,14.2,53,0.00,,---,0.00,VWS V14.01,2013-01-08 18:41:00,
2013-01-08 13:46:00,47.2,31.2,30.28,North,359,0.3,9.4,54,0.00,,---,0.00,VWS V14.01,2013-01-08 18:46:00,
2013-01-08 13:51:00,47.4,31.0,30.29,North,359,0.0,13.2,53,0.00,,---,0.00,VWS V14.01,2013-01-08 18:51:00,
2013-01-08 13:56:00,47.7,31.4,30.28,North,359,0.0,4.5,53,0.00,,---,0.00,VWS V14.01,2013-01-08 18:56:00,
2013-01-08 14:01:00,47.5,31.1,30.28,North,359,0.0,9.7,53,0.00,,---,0.00,VWS V14.01,2013-01-08 19:01:00,
2013-01-08 14:06:00,47.4,31.0,30.28,NNE,22,0.0,8.5,53,0.00,,---,0.00,VWS V14.01,2013-01-08 19:06:00,
2013-01-08 14:11:00,48.1,31.5,30.28,North,359,1.7,7.6,52,0.00,,---,0.00,VWS V14.01,2013-01-08 19:11:00,
2013-01-08 14:16:00,47.4,30.7,30.29,North,359,3.7,13.5,52,0.00,,---,0.00,VWS V14.01,2013-01-08 19:16:00,
2013-01-08 14:21:00,47.8,31.3,30.29,NW,321,4.2,9.4,53,0.00,,---,0.00,VWS V14.01,2013-01-08 19:21:00,
2013-01-08 14:26:00,47.8,31.2,30.29,WSW,242,15.1,15.2,52,0.00,,---,0.00,VWS V14.01,2013-01-08 19:26:00,
2013-01-08 14:31:00,48.3,31.4,30.30,North,359,1.2,7.8,52,0.00,,---,0.00,VWS V14.01,2013-01-08 19:31:00,
2013-01-08 14:36:00,48.6,31.5,30.29,North,359,1.8,10.3,52,0.00,,---,0.00,VWS V14.01,2013-01-08 19:36:00,
2013-01-08 14:41:00,48.4,31.6,30.30,NW,312,5.4,13.2,52,0.00,,---,0.00,VWS V14.01,2013-01-08 19:41:00,
2013-01-08 14:46:00,48.4,31.7,30.30,WNW,290,2.9,8.1,52,0.00,,---,0.00,VWS V14.01,2013-01-08 19:46:00,
2013-01-08 14:51:00,48.1,31.1,30.30,North,359,7.7,7.7,52,0.00,,---,0.00,VWS V14.01,2013-01-08 19:51:00,
2013-01-08 14:56:00,48.3,31.5,30.30,North,359,0.0,7.4,52,0.00,,---,0.00,VWS V14.01,2013-01-08 19:56:00,
2013-01-08 15:01:00,48.6,31.6,30.30,WSW,257,8.9,8.9,52,0.00,,---,0.00,VWS V14.01,2013-01-08 20:01:00,
2013-01-08 15:06:00,47.6,30.6,30.30,West,259,7.7,15.8,52,0.00,,---,0.00,VWS V14.01,2013-01-08 20:06:00,
2013-01-08 15:11:00,48.0,31.5,30.30,NW,315,7.1,7.8,52,0.00,,---,0.00,VWS V14.01,2013-01-08 20:11:00,
2013-01-08 15:16:00,47.2,31.0,30.30,NNW,328,2.8,8.5,53,0.00,,---,0.00,VWS V14.01,2013-01-08 20:16:00,
2013-01-08 15:21:00,46.9,30.9,30.30,WNW,284,6.3,9.2,54,0.00,,---,0.00,VWS V14.01,2013-01-08 20:21:00,
2013-01-08 15:26:00,46.6,30.9,30.30,SW,226,6.2,9.1,54,0.00,,---,0.00,VWS V14.01,2013-01-08 20:26:00,
2013-01-08 15:31:00,47.0,31.4,30.30,West,263,2.9,4.9,54,0.00,,---,0.00,VWS V14.01,2013-01-08 20:31:00,
2013-01-08 15:36:00,47.0,31.8,30.30,WSW,250,4.5,9.1,55,0.00,,---,0.00,VWS V14.01,2013-01-08 20:36:00,
2013-01-08 15:41:00,46.7,31.7,30.31,WNW,292,6.6,8.6,56,0.00,,---,0.00,VWS V14.01,2013-01-08 20:41:00,
2013-01-08 15:46:00,47.1,32.3,30.30,WSW,256,2.8,7.4,56,0.00,,---,0.00,VWS V14.01,2013-01-08 20:46:00,
2013-01-08 15:51:00,46.7,32.0,30.31,WSW,249,4.3,8.2,56,0.00,,---,0.00,VWS V14.01,2013-01-08 20:51:00,
2013-01-08 15:56:00,46.1,31.7,30.31,WNW,283,4.8,5.2,57,0.00,,---,0.00,VWS V14.01,2013-01-08 20:56:00,
2013-01-08 16:01:00,46.1,31.9,30.31,West,281,3.2,5.3,57,0.00,,---,0.00,VWS V14.01,2013-01-08 21:01:00,
2013-01-08 16:06:00,45.4,31.4,30.31,West,281,5.0,5.7,58,0.00,,---,0.00,VWS V14.01,2013-01-08 21:06:00,
2013-01-08 16:11:00,45.9,32.1,30.31,West,270,2.5,2.7,58,0.00,,---,0.00,VWS V14.01,2013-01-08 21:11:00,
2013-01-08 16:16:00,45.3,31.7,30.31,West,263,2.7,5.3,59,0.00,,---,0.00,VWS V14.01,2013-01-08 21:16:00,
2013-01-08 16:21:00,45.7,32.2,30.31,West,271,3.0,3.7,59,0.00,,---,0.00,VWS V14.01,2013-01-08 21:21:00,
2013-01-08 16:26:00,44.6,31.3,30.31,WSW,246,2.5,4.7,59,0.00,,---,0.00,VWS V14.01,2013-01-08 21:26:00,
2013-01-08 16:31:00,45.0,31.7,30.31,WNW,284,6.0,6.3,59,0.00,,---,0.00,VWS V14.01,2013-01-08 21:31:00,
2013-01-08 16:36:00,45.1,31.8,30.31,WNW,288,0.9,2.4,59,0.00,,---,0.00,VWS V14.01,2013-01-08 21:36:00,
2013-01-08 16:41:00,44.4,31.3,30.31,WSW,243,3.1,3.8,60,0.00,,---,0.00,VWS V14.01,2013-01-08 21:41:00,
2013-01-08 16:46:00,45.0,31.9,30.31,WSW,253,6.8,6.8,60,0.00,,---,0.00,VWS V14.01,2013-01-08 21:46:00,
2013-01-08 16:51:00,45.4,32.5,30.31,West,280,3.7,6.2,60,0.00,,---,0.00,VWS V14.01,2013-01-08 21:51:00,
2013-01-08 16:56:00,44.6,31.9,30.31,West,263,4.3,5.7,61,0.00,,---,0.00,VWS V14.01,2013-01-08 21:56:00,
2013-01-08 17:01:00,43.2,30.7,30.31,West,270,5.7,5.9,61,0.00,,---,0.00,VWS V14.01,2013-01-08 22:01:00,
2013-01-08 17:06:00,43.6,31.2,30.31,WSW,256,3.0,3.9,61,0.00,,---,0.00,VWS V14.01,2013-01-08 22:06:00,
2013-01-08 17:11:00,43.8,31.6,30.31,West,269,2.6,3.4,62,0.00,,---,0.00,VWS V14.01,2013-01-08 22:11:00,
2013-01-08 17:14:00,40.4,32.1,30.33,West,273,2.9,3.1,72,0.00,,---,0.00,VWS V14.01,2013-01-08 22:14:00,
2013-01-08 17:16:00,43.5,31.4,30.31,SW,229,7.5,7.6,62,0.00,,---,0.00,VWS V14.01,2013-01-08 22:16:00,
2013-01-08 17:21:00,43.4,31.5,30.31,SW,221,3.4,4.8,63,0.00,,---,0.00,VWS V14.01,2013-01-08 22:21:00,
2013-01-08 17:26:00,43.3,31.6,30.31,SW,236,4.3,4.3,63,0.00,,---,0.00,VWS V14.01,2013-01-08 22:26:00,
2013-01-08 17:31:00,42.7,31.2,30.31,SW,236,4.6,6.1,64,0.00,,---,0.00,VWS V14.01,2013-01-08 22:31:00,
2013-01-08 17:36:00,42.6,31.2,30.31,WSW,239,3.0,4.6,64,0.00,,---,0.00,VWS V14.01,2013-01-08 22:36:00,
2013-01-08 17:41:00,43.2,32.0,30.31,SW,215,4.8,5.0,64,0.00,,---,0.00,VWS V14.01,2013-01-08 22:41:00,
2013-01-08 17:46:00,42.5,31.4,30.31,WSW,256,4.1,6.0,65,0.00,,---,0.00,VWS V14.01,2013-01-08 22:46:00,
2013-01-08 17:51:00,42.5,31.5,30.32,SW,231,4.7,4.7,65,0.00,,---,0.00,VWS V14.01,2013-01-08 22:51:00,
2013-01-08 17:56:00,42.5,31.7,30.32,SW,214,4.7,4.7,65,0.00,,---,0.00,VWS V14.01,2013-01-08 22:56:00,
2013-01-08 18:01:00,42.4,31.6,30.32,SW,232,3.4,3.7,65,0.00,,---,0.00,VWS V14.01,2013-01-08 23:01:00,
2013-01-08 18:06:00,42.0,31.3,30.32,WSW,240,2.4,3.2,66,0.00,,---,0.00,VWS V14.01,2013-01-08 23:06:00,
2013-01-08 18:11:00,41.9,31.4,30.32,SW,235,3.4,3.9,66,0.00,,---,0.00,VWS V14.01,2013-01-08 23:11:00,
2013-01-08 18:16:00,41.8,31.4,30.32,SW,219,2.9,4.7,66,0.00,,---,0.00,VWS V14.01,2013-01-08 23:16:00,
2013-01-08 18:21:00,42.2,31.9,30.32,WSW,248,2.1,2.7,67,0.00,,---,0.00,VWS V14.01,2013-01-08 23:21:00,
2013-01-08 18:26:00,41.9,31.6,30.32,WSW,238,1.9,2.1,66,0.00,,---,0.00,VWS V14.01,2013-01-08 23:26:00,
2013-01-08 18:31:00,41.3,31.1,30.32,WSW,250,2.4,2.4,67,0.00,,---,0.00,VWS V14.01,2013-01-08 23:31:00,
2013-01-08 18:36:00,41.6,31.6,30.32,WSW,240,3.3,3.9,67,0.00,,---,0.00,VWS V14.01,2013-01-08 23:36:00,
2013-01-08 18:41:00,41.3,31.4,30.32,West,266,2.5,2.8,68,0.00,,---,0.00,VWS V14.01,2013-01-08 23:41:00,
2013-01-08 18:46:00,41.5,31.7,30.32,WSW,248,2.8,4.5,68,0.00,,---,0.00,VWS V14.01,2013-01-08 23:46:00,
2013-01-08 18:51:00,40.4,30.8,30.32,West,259,3.7,3.9,68,0.00,,---,0.00,VWS V14.01,2013-01-08 23:51:00,
2013-01-08 18:56:00,41.5,32.0,30.32,West,262,3.7,3.7,69,0.00,,---,0.00,VWS V14.01,2013-01-08 23:56:00,
2013-01-08 19:01:00,40.8,31.4,30.32,WNW,285,2.5,3.9,69,0.00,,---,0.00,VWS V14.01,2013-01-09 00:01:00,
2013-01-08 19:06:00,40.7,31.5,30.33,West,273,3.2,4.8,69,0.00,,---,0.00,VWS V14.01,2013-01-09 00:06:00,
2013-01-08 19:11:00,40.6,31.6,30.33,West,276,2.9,4.0,70,74.52,,---,0.00,VWS V14.01,2013-01-09 00:11:00,
2013-01-08 19:15:00,39.7,30.8,30.33,WSW,257,2.2,3.4,70,0.00,,---,0.00,VWS V14.01,2013-01-09 00:15:00,
2013-01-08 19:20:00,41.0,32.2,30.33,WNW,302,1.7,2.4,71,0.00,,---,0.00,VWS V14.01,2013-01-09 00:20:00,
2013-01-08 19:25:00,40.0,31.3,30.33,WNW,287,1.1,4.1,71,0.00,,---,0.00,VWS V14.01,2013-01-09 00:25:00,
2013-01-08 19:30:00,39.8,31.2,30.33,West,278,3.2,3.3,71,0.00,,---,0.00,VWS V14.01,2013-01-09 00:30:00,
2013-01-08 19:35:00,39.8,31.5,30.33,WSW,257,3.3,3.8,72,0.00,,---,0.00,VWS V14.01,2013-01-09 00:35:00,
2013-01-08 19:40:00,39.8,31.4,30.33,WSW,257,0.9,1.1,72,74.52,,---,0.00,VWS V14.01,2013-01-09 00:40:00,
2013-01-08 19:45:00,39.7,31.3,30.33,West,264,0.0,0.0,72,0.00,,---,0.00,VWS V14.01,2013-01-09 00:45:00,
2013-01-08 19:50:00,39.4,31.0,30.34,West,264,0.0,0.0,72,0.00,,---,0.00,VWS V14.01,2013-01-09 00:50:00,
2013-01-08 19:55:00,38.7,30.5,30.33,SSW,200,1.0,1.9,72,0.00,,---,0.00,VWS V14.01,2013-01-09 00:55:00,
2013-01-08 20:00:00,38.5,30.3,30.33,South,190,0.0,0.0,72,0.00,,---,0.00,VWS V14.01,2013-01-09 01:00:00,
2013-01-08 20:05:00,37.6,29.7,30.33,South,190,0.0,0.0,73,0.57,,---,0.00,VWS V14.01,2013-01-09 01:05:00,
2013-01-08 20:10:00,38.0,30.4,30.33,South,190,0.0,0.0,74,0.00,,---,0.00,VWS V14.01,2013-01-09 01:10:00,
2013-01-08 20:15:00,37.9,30.2,30.33,SW,214,0.0,0.0,73,0.00,,---,0.00,VWS V14.01,2013-01-09 01:15:00,
2013-01-08 20:20:00,37.9,30.4,30.33,SW,214,0.0,0.0,74,0.00,,---,0.00,VWS V14.01,2013-01-09 01:20:00,
2013-01-08 20:25:00,38.0,30.5,30.33,SW,214,0.0,0.0,74,0.00,,---,0.00,VWS V14.01,2013-01-09 01:25:00,
2013-01-08 20:30:00,37.4,30.0,30.33,SW,214,0.0,0.0,74,0.00,,---,0.00,VWS V14.01,2013-01-09 01:30:00,
2013-01-08 20:35:00,37.6,30.3,30.33,SW,214,0.0,0.0,75,0.56,,---,0.00,VWS V14.01,2013-01-09 01:35:00,
2013-01-08 20:40:00,37.1,30.8,30.33,SW,214,0.0,0.0,78,0.00,,---,0.00,VWS V14.01,2013-01-09 01:40:00,
2013-01-08 20:45:00,36.7,31.4,30.33,SW,214,0.0,0.0,81,0.00,,---,0.00,VWS V14.01,2013-01-09 01:45:00,
2013-01-08 20:50:00,36.7,30.9,30.33,SW,214,0.0,0.0,79,0.00,,---,0.00,VWS V14.01,2013-01-09 01:50:00,
2013-01-08 20:55:00,36.8,30.9,30.32,SW,214,0.0,0.0,79,0.00,,---,0.00,VWS V14.01,2013-01-09 01:55:00,
2013-01-08 21:00:00,37.0,31.1,30.32,SW,214,0.0,0.0,79,0.57,,---,0.00,VWS V14.01,2013-01-09 02:00:00,
2013-01-08 21:05:00,36.8,30.9,30.32,SW,214,0.0,0.0,79,0.00,,---,0.00,VWS V14.01,2013-01-09 02:05:00,
2013-01-08 21:10:00,36.2,30.2,30.32,SW,214,0.0,0.0,79,0.00,,---,0.00,VWS V14.01,2013-01-09 02:10:00,
2013-01-08 21:15:00,36.4,30.5,30.32,SW,214,0.0,0.0,79,0.00,,---,0.00,VWS V14.01,2013-01-09 02:15:00,
2013-01-08 21:20:00,35.9,30.1,30.32,SW,214,0.0,0.0,79,0.00,,---,0.00,VWS V14.01,2013-01-09 02:20:00,
2013-01-08 21:25:00,36.2,30.4,30.32,SW,214,0.0,0.0,79,0.00,,---,0.00,VWS V14.01,2013-01-09 02:25:00,
2013-01-08 21:27:00,31.9,28.6,30.33,WSW,242,0.0,0.0,87,0.00,,---,0.00,VWS V14.01,2013-01-09 02:27:00,
2013-01-08 21:30:00,35.4,30.0,30.32,SW,214,0.0,0.0,80,0.00,,---,0.00,VWS V14.01,2013-01-09 02:30:00,
2013-01-08 21:35:00,35.0,30.0,30.32,SW,214,0.0,0.0,82,0.00,,---,0.00,VWS V14.01,2013-01-09 02:35:00,
2013-01-08 21:40:00,35.7,30.7,30.32,SW,214,0.0,0.0,82,0.00,,---,0.00,VWS V14.01,2013-01-09 02:40:00,
2013-01-08 21:45:00,35.6,30.4,30.32,SW,214,0.0,0.0,81,0.00,,---,0.00,VWS V14.01,2013-01-09 02:45:00,
2013-01-08 21:50:00,35.4,30.3,30.32,East,84,0.0,0.0,81,0.00,,---,0.00,VWS V14.01,2013-01-09 02:50:00,
2013-01-08 21:55:00,35.1,30.0,30.32,East,84,0.0,0.0,81,0.00,,---,0.00,VWS V14.01,2013-01-09 02:55:00,
2013-01-08 22:00:00,35.2,29.9,30.33,East,84,0.0,0.0,81,0.00,,---,0.00,VWS V14.01,2013-01-09 03:00:00,
2013-01-08 22:05:00,35.1,29.9,30.33,East,84,0.0,0.0,81,0.00,,---,0.00,VWS V14.01,2013-01-09 03:05:00,
2013-01-08 22:10:00,34.7,29.6,30.33,East,84,0.0,0.0,81,0.00,,---,0.00,VWS V14.01,2013-01-09 03:10:00,
2013-01-08 22:15:00,34.4,29.7,30.33,East,84,0.0,0.0,83,0.00,,---,0.00,VWS V14.01,2013-01-09 03:15:00,
2013-01-08 22:20:00,33.5,28.8,30.33,East,84,0.0,0.0,83,0.00,,---,0.00,VWS V14.01,2013-01-09 03:20:00,
2013-01-08 22:25:00,33.8,29.3,30.33,East,84,0.0,0.0,83,0.00,,---,0.00,VWS V14.01,2013-01-09 03:25:00,
2013-01-08 22:30:00,33.6,29.1,30.33,East,84,0.0,0.0,83,0.00,,---,0.00,VWS V14.01,2013-01-09 03:30:00,
2013-01-08 22:35:00,33.6,29.1,30.33,East,84,0.0,0.0,83,0.00,,---,0.00,VWS V14.01,2013-01-09 03:35:00,
2013-01-08 22:40:00,33.5,29.1,30.33,East,84,0.0,0.0,84,0.00,,---,0.00,VWS V14.01,2013-01-09 03:40:00,
2013-01-08 22:45:00,33.2,28.8,30.34,SW,217,1.5,1.5,84,38.26,,---,0.00,VWS V14.01,2013-01-09 03:45:00,
2013-01-08 22:50:00,33.0,28.6,30.35,SW,229,1.4,1.6,84,0.00,,---,0.00,VWS V14.01,2013-01-09 03:50:00,
2013-01-08 22:55:00,32.6,28.5,30.35,SSW,211,0.0,0.0,84,0.00,,---,0.00,VWS V14.01,2013-01-09 03:55:00,
2013-01-08 23:00:00,32.3,28.6,30.34,SSW,211,0.0,0.0,86,0.00,,---,0.00,VWS V14.01,2013-01-09 04:00:00,
2013-01-08 23:05:00,32.7,29.2,30.34,SSW,211,0.0,0.0,87,0.00,,---,0.00,VWS V14.01,2013-01-09 04:05:00,
2013-01-08 23:10:00,33.1,29.3,30.35,WSW,243,1.8,1.8,86,38.26,,---,0.00,VWS V14.01,2013-01-09 04:10:00,
2013-01-08 23:15:00,33.2,29.5,30.34,WSW,242,0.0,0.0,86,0.00,,---,0.00,VWS V14.01,2013-01-09 04:15:00,
2013-01-08 23:20:00,33.5,29.8,30.34,WSW,242,0.0,0.0,86,0.00,,---,0.00,VWS V14.01,2013-01-09 04:20:00,
2013-01-08 23:25:00,33.4,29.7,30.34,WSW,242,0.0,0.0,86,0.00,,---,0.00,VWS V14.01,2013-01-09 04:25:00,
2013-01-08 23:30:00,33.1,29.4,30.34,WSW,242,0.0,0.0,86,0.00,,---,0.00,VWS V14.01,2013-01-09 04:30:00,
2013-01-08 23:35:00,32.6,28.9,30.34,WSW,242,0.0,0.0,86,0.00,,---,0.00,VWS V14.01,2013-01-09 04:35:00,
2013-01-08 23:40:00,32.6,29.1,30.34,WSW,242,0.0,0.0,87,0.00,,---,0.00,VWS V14.01,2013-01-09 04:40:00,
2013-01-08 23:45:00,32.4,28.9,30.34,WSW,242,0.0,0.0,87,0.00,,---,0.00,VWS V14.01,2013-01-09 04:45:00,
2013-01-08 23:50:00,31.9,28.6,30.33,WSW,242,0.0,0.0,87,0.00,,---,0.00,VWS V14.01,2013-01-09 04:50:00,
2013-01-08 23:55:00,32.6,29.3,30.33,WSW,242,0.0,0.0,87,0.00,,---,0.00,VWS V14.01,2013-01-09 04:55:00,